createdAt,value
2022-10-17T00:01:29.462Z,15.83
2022-10-17T00:03:56.095Z,15.64
2022-10-17T00:06:22.579Z,15.64
2022-10-17T00:08:49.045Z,15.58
2022-10-17T00:11:22.599Z,15.43
2022-10-17T00:13:50.707Z,15.36
2022-10-17T00:16:31.523Z,15.47
2022-10-17T00:18:58.320Z,15.59
2022-10-17T00:21:25.721Z,15.50
2022-10-17T00:23:52.744Z,15.52
2022-10-17T00:26:19.350Z,15.62
2022-10-17T00:28:47.654Z,15.54
2022-10-17T00:31:14.332Z,15.33
2022-10-17T00:33:40.817Z,15.30
2022-10-17T00:36:11.872Z,15.41
2022-10-17T00:38:38.361Z,15.38
2022-10-17T00:41:05.476Z,15.45
2022-10-17T00:43:57.898Z,15.55
2022-10-17T00:46:29.631Z,15.54
2022-10-17T00:48:57.389Z,15.44
2022-10-17T00:51:32.989Z,15.37
2022-10-17T00:54:00.197Z,15.37
2022-10-17T00:56:26.833Z,15.46
2022-10-17T00:58:53.658Z,15.49
2022-10-17T01:01:20.356Z,15.37
2022-10-17T01:03:46.862Z,15.31
2022-10-17T01:06:13.361Z,15.12
2022-10-17T01:08:40.097Z,15.10
2022-10-17T01:12:04.261Z,15.13
2022-10-17T01:14:39.876Z,15.26
2022-10-17T01:17:45.298Z,15.26
2022-10-17T01:20:32.810Z,15.22
2022-10-17T01:23:15.470Z,15.24
2022-10-17T01:26:00.335Z,15.21
2022-10-17T01:28:53.015Z,15.14
2022-10-17T01:31:22.739Z,15.08
2022-10-17T01:33:57.403Z,15.09
2022-10-17T01:36:51.359Z,15.21
2022-10-17T01:39:26.977Z,15.25
2022-10-17T01:42:08.158Z,15.39
2022-10-17T01:44:39.423Z,15.38
2022-10-17T01:47:09.666Z,15.33
2022-10-17T01:49:38.093Z,15.33
2022-10-17T01:52:09.161Z,15.34
2022-10-17T01:55:01.561Z,15.46
2022-10-17T01:57:35.094Z,15.39
2022-10-17T02:00:03.770Z,15.41
2022-10-17T02:02:31.399Z,15.33
2022-10-17T02:04:57.998Z,15.28
2022-10-17T02:07:24.532Z,15.40
2022-10-17T02:09:51.256Z,15.16
2022-10-17T02:12:48.929Z,15.28
2022-10-17T02:15:36.822Z,15.19
2022-10-17T02:18:25.400Z,15.05
2022-10-17T02:20:57.292Z,14.76
2022-10-17T02:23:31.470Z,14.59
2022-10-17T02:26:06.770Z,14.52
2022-10-17T02:29:04.262Z,14.45
2022-10-17T02:31:42.163Z,14.46
2022-10-17T02:34:38.287Z,14.44
2022-10-17T02:37:06.217Z,14.39
2022-10-17T02:39:33.716Z,14.57
2022-10-17T02:42:02.427Z,14.67
2022-10-17T02:44:29.852Z,14.74
2022-10-17T02:47:03.973Z,14.90
2022-10-17T02:49:34.516Z,14.96
2022-10-17T02:52:01.038Z,15.04
2022-10-17T02:54:48.055Z,15.03
2022-10-17T02:57:36.318Z,15.00
2022-10-17T03:00:05.281Z,15.07
2022-10-17T03:02:43.913Z,15.03
2022-10-17T03:05:12.489Z,14.86
2022-10-17T03:07:39.095Z,14.75
2022-10-17T03:10:06.241Z,14.72
2022-10-17T03:12:32.713Z,14.48
2022-10-17T03:15:00.859Z,14.31
2022-10-17T03:17:27.328Z,14.39
2022-10-17T03:19:54.130Z,14.42
2022-10-17T03:22:20.655Z,14.43
2022-10-17T03:24:47.191Z,14.56
2022-10-17T03:27:13.857Z,14.59
2022-10-17T03:29:40.510Z,14.60
2022-10-17T03:32:07.349Z,14.57
2022-10-17T03:34:34.260Z,14.40
2022-10-17T03:37:01.000Z,14.35
2022-10-17T03:39:27.834Z,14.41
2022-10-17T03:41:54.531Z,14.53
2022-10-17T03:44:21.109Z,14.50
2022-10-17T03:46:47.573Z,14.60
2022-10-17T03:49:14.098Z,14.49
2022-10-17T03:51:40.619Z,14.63
2022-10-17T03:54:07.245Z,14.79
2022-10-17T03:56:33.875Z,14.82
2022-10-17T03:59:00.562Z,14.88
2022-10-17T04:01:27.154Z,14.84
2022-10-17T04:03:58.958Z,14.87
2022-10-17T04:06:25.446Z,14.89
2022-10-17T04:08:53.878Z,14.75
2022-10-17T04:11:21.105Z,14.59
2022-10-17T04:13:53.569Z,14.80
2022-10-17T04:16:20.240Z,14.75
2022-10-17T04:18:47.040Z,14.68
2022-10-17T04:21:14.614Z,14.68
2022-10-17T04:23:41.161Z,14.71
2022-10-17T04:26:07.902Z,14.63
2022-10-17T04:28:34.740Z,14.55
2022-10-17T04:31:13.095Z,14.19
2022-10-17T04:33:39.974Z,14.08
2022-10-17T04:36:14.744Z,14.18
2022-10-17T04:38:41.529Z,14.18
2022-10-17T04:41:11.054Z,14.20
2022-10-17T04:43:38.319Z,14.20
2022-10-17T04:46:10.283Z,14.19
2022-10-17T04:48:37.785Z,14.01
2022-10-17T04:51:10.959Z,13.88
2022-10-17T04:53:38.797Z,13.79
2022-10-17T04:56:19.480Z,13.84
2022-10-17T04:58:46.979Z,14.02
2022-10-17T05:01:15.978Z,14.13
2022-10-17T05:03:42.940Z,14.30
2022-10-17T05:06:18.801Z,14.29
2022-10-17T05:08:46.107Z,14.15
2022-10-17T05:11:38.932Z,14.21
2022-10-17T05:14:05.443Z,14.14
2022-10-17T05:16:31.900Z,14.12
2022-10-17T05:18:59.300Z,14.09
2022-10-17T05:21:27.830Z,13.98
2022-10-17T05:23:54.910Z,13.88
2022-10-17T05:26:21.968Z,13.99
2022-10-17T05:28:48.518Z,13.92
2022-10-17T05:31:15.202Z,14.09
2022-10-17T05:33:41.655Z,14.14
2022-10-17T05:36:08.493Z,14.06
2022-10-17T05:38:35.203Z,13.95
2022-10-17T05:41:04.186Z,13.97
2022-10-17T05:43:31.681Z,13.84
2022-10-17T05:45:58.272Z,13.73
2022-10-17T05:48:24.805Z,13.68
2022-10-17T05:50:58.648Z,13.72
2022-10-17T05:53:25.121Z,13.76
2022-10-17T05:56:02.781Z,13.68
2022-10-17T05:58:49.215Z,13.76
2022-10-17T06:01:16.442Z,13.86
2022-10-17T06:03:42.962Z,13.99
2022-10-17T06:06:11.574Z,14.09
2022-10-17T06:08:38.036Z,14.29
2022-10-17T06:11:07.697Z,14.37
2022-10-17T06:13:37.535Z,14.39
2022-10-17T06:16:04.082Z,14.43
2022-10-17T06:18:30.677Z,14.44
2022-10-17T06:21:17.746Z,14.57
2022-10-17T06:23:44.273Z,14.45
2022-10-17T06:26:11.021Z,14.26
2022-10-17T06:28:37.613Z,14.23
2022-10-17T06:31:07.510Z,14.41
2022-10-17T06:33:34.708Z,14.54
2022-10-17T06:36:01.286Z,14.53
2022-10-17T06:38:27.776Z,14.51
2022-10-17T06:40:54.228Z,14.63
2022-10-17T06:43:25.599Z,14.73
2022-10-17T06:45:54.781Z,14.66
2022-10-17T06:48:21.395Z,14.62
2022-10-17T06:50:47.944Z,14.78
2022-10-17T06:53:14.677Z,14.79
2022-10-17T06:55:41.136Z,14.99
2022-10-17T06:58:07.725Z,15.09
2022-10-17T07:00:34.394Z,15.26
2022-10-17T07:03:01.064Z,15.28
2022-10-17T07:05:27.638Z,15.35
2022-10-17T07:07:54.155Z,15.45
2022-10-17T07:10:20.657Z,15.58
2022-10-17T07:12:47.124Z,15.68
2022-10-17T07:15:13.603Z,15.74
2022-10-17T07:17:40.146Z,15.77
2022-10-17T07:20:07.184Z,15.80
2022-10-17T07:22:33.868Z,15.72
2022-10-17T07:25:00.312Z,15.89
2022-10-17T07:27:26.978Z,15.99
2022-10-17T07:29:53.681Z,16.13
2022-10-17T07:32:20.191Z,16.18
2022-10-17T07:34:46.721Z,16.34
2022-10-17T07:37:13.425Z,16.41
2022-10-17T07:39:39.929Z,16.47
2022-10-17T07:42:06.455Z,16.52
2022-10-17T07:44:33.200Z,16.60
2022-10-17T07:46:59.714Z,16.56
2022-10-17T07:49:26.932Z,16.70
2022-10-17T07:51:53.511Z,16.80
2022-10-17T07:54:20.031Z,16.90
2022-10-17T07:56:46.482Z,17.03
2022-10-17T07:59:12.930Z,17.15
2022-10-17T08:01:39.833Z,17.23
2022-10-17T08:04:09.474Z,17.33
2022-10-17T08:06:35.991Z,17.35
2022-10-17T08:09:02.469Z,17.48
2022-10-17T08:11:28.948Z,17.62
2022-10-17T08:13:55.472Z,17.73
2022-10-17T08:16:22.108Z,17.77
2022-10-17T08:18:48.603Z,17.76
2022-10-17T08:21:15.143Z,17.76
2022-10-17T08:23:41.783Z,17.66
2022-10-17T08:26:09.011Z,17.69
2022-10-17T08:28:36.848Z,17.72
2022-10-17T08:31:12.071Z,17.79
2022-10-17T08:33:38.749Z,17.80
2022-10-17T08:36:06.110Z,17.83
2022-10-17T08:38:35.634Z,17.66
2022-10-17T08:41:31.745Z,17.88
2022-10-17T08:44:13.168Z,18.00
2022-10-17T08:46:41.993Z,18.01
2022-10-17T08:49:16.636Z,18.04
2022-10-17T08:51:49.857Z,17.94
2022-10-17T08:54:38.449Z,18.00
2022-10-17T08:57:05.004Z,18.11
2022-10-17T08:59:31.525Z,18.13
2022-10-17T09:02:12.293Z,18.21
2022-10-17T09:04:46.195Z,18.20
2022-10-17T09:07:19.282Z,18.26
2022-10-17T09:10:15.155Z,18.38
2022-10-17T09:12:53.277Z,18.40
2022-10-17T09:15:58.757Z,18.39
2022-10-17T09:18:38.776Z,18.40
2022-10-17T09:21:25.515Z,18.57
2022-10-17T09:23:59.689Z,18.26
2022-10-17T09:26:36.030Z,18.32
2022-10-17T09:29:02.759Z,18.20
2022-10-17T09:31:34.060Z,18.23
2022-10-17T09:34:02.337Z,18.22
2022-10-17T09:36:31.228Z,18.41
2022-10-17T09:39:04.338Z,18.61
2022-10-17T09:41:49.743Z,18.35
2022-10-17T09:44:16.310Z,18.60
2022-10-17T09:47:07.675Z,18.67
2022-10-17T09:49:40.243Z,18.36
2022-10-17T09:52:14.938Z,18.59
2022-10-17T09:55:03.287Z,18.62
2022-10-17T09:57:56.921Z,18.74
2022-10-17T10:00:38.934Z,18.62
2022-10-17T10:03:11.379Z,18.78
2022-10-17T10:05:38.189Z,18.90
2022-10-17T10:08:11.494Z,18.93
2022-10-17T10:10:38.991Z,19.02
2022-10-17T10:13:26.423Z,19.02
2022-10-17T10:15:53.358Z,19.12
2022-10-17T10:18:36.117Z,19.23
2022-10-17T10:21:15.285Z,19.36
2022-10-17T10:23:44.038Z,19.27
2022-10-17T10:26:22.611Z,19.36
2022-10-17T10:28:58.993Z,19.24
2022-10-17T10:31:31.594Z,19.31
2022-10-17T10:34:00.005Z,19.29
2022-10-17T10:36:26.617Z,19.37
2022-10-17T10:38:55.331Z,19.38
2022-10-17T10:41:21.808Z,19.43
2022-10-17T10:43:50.064Z,19.53
2022-10-17T10:46:27.743Z,19.38
2022-10-17T10:49:01.755Z,19.41
2022-10-17T10:51:35.535Z,19.65
2022-10-17T10:54:13.056Z,19.68
2022-10-17T10:56:43.595Z,19.75
2022-10-17T10:59:28.453Z,19.81
2022-10-17T11:02:00.062Z,19.87
2022-10-17T11:04:50.670Z,20.07
2022-10-17T11:07:22.594Z,19.84
2022-10-17T11:09:59.965Z,19.76
2022-10-17T11:12:42.598Z,19.93
2022-10-17T11:15:39.923Z,19.98
2022-10-17T11:18:30.414Z,19.97
2022-10-17T11:21:27.080Z,20.12
2022-10-17T11:24:05.645Z,20.11
2022-10-17T11:26:42.723Z,20.28
2022-10-17T11:29:11.142Z,20.24
2022-10-17T11:31:41.939Z,20.20
2022-10-17T11:34:24.153Z,20.20
2022-10-17T11:36:53.174Z,20.46
2022-10-17T11:39:42.189Z,20.32
2022-10-17T11:42:17.439Z,20.56
2022-10-17T11:44:44.334Z,20.53
2022-10-17T11:47:17.481Z,20.57
2022-10-17T11:51:59.642Z,20.51
2022-10-17T11:52:56.575Z,20.50
2022-10-17T11:55:26.506Z,20.65
2022-10-17T11:58:23.476Z,20.77
2022-10-17T12:00:52.827Z,20.90
2022-10-17T12:03:22.828Z,20.69
2022-10-17T12:05:55.913Z,20.60
2022-10-17T12:08:38.605Z,20.43
2022-10-17T12:11:15.354Z,20.77
2022-10-17T12:13:49.806Z,20.90
2022-10-17T12:16:19.345Z,21.05
2022-10-17T12:18:47.611Z,20.88
2022-10-17T12:21:14.407Z,21.04
2022-10-17T12:23:40.917Z,21.12
2022-10-17T12:26:09.671Z,20.90
2022-10-17T12:28:48.974Z,20.87
2022-10-17T12:31:18.466Z,21.05
2022-10-17T12:33:52.920Z,21.16
2022-10-17T12:36:19.302Z,21.02
2022-10-17T12:38:50.123Z,20.95
2022-10-17T12:41:17.614Z,21.12
2022-10-17T12:43:47.716Z,21.10
2022-10-17T12:46:42.919Z,21.12
2022-10-17T12:49:46.248Z,20.96
2022-10-17T12:52:31.974Z,20.81
2022-10-17T12:55:11.673Z,21.08
2022-10-17T12:57:42.131Z,21.24
2022-10-17T13:00:16.461Z,21.37
2022-10-17T13:02:43.111Z,21.45
2022-10-17T13:05:19.668Z,21.38
2022-10-17T13:07:48.562Z,21.01
2022-10-17T13:13:41.158Z,21.08
2022-10-17T13:16:07.893Z,20.97
2022-10-17T13:18:34.363Z,21.25
2022-10-17T13:21:04.255Z,21.36
2022-10-17T13:23:36.546Z,21.08
2022-10-17T13:26:10.484Z,21.11
2022-10-17T13:28:39.406Z,20.87
2022-10-17T13:31:07.361Z,21.01
2022-10-17T13:33:39.852Z,21.13
2022-10-17T13:36:08.121Z,21.36
2022-10-17T13:38:36.785Z,21.56
2022-10-17T13:41:34.389Z,21.62
2022-10-17T13:43:58.893Z,21.77
2022-10-17T13:46:39.359Z,21.89
2022-10-17T13:49:13.130Z,21.77
2022-10-17T13:51:43.620Z,21.67
2022-10-17T13:54:33.177Z,21.84
2022-10-17T13:56:59.798Z,21.97
2022-10-17T13:59:32.903Z,21.83
2022-10-17T14:02:00.863Z,22.00
2022-10-17T14:04:27.765Z,21.92
2022-10-17T14:06:57.498Z,21.99
2022-10-17T14:09:24.946Z,22.06
2022-10-17T14:12:10.638Z,21.92
2022-10-17T14:15:05.165Z,21.91
2022-10-17T14:17:27.939Z,21.84
2022-10-17T14:20:26.201Z,21.80
2022-10-17T14:22:54.414Z,21.99
2022-10-17T14:25:39.248Z,22.18
2022-10-17T14:28:11.678Z,22.25
2022-10-17T14:30:56.785Z,22.32
2022-10-17T14:33:27.482Z,22.23
2022-10-17T14:35:56.713Z,22.33
2022-10-17T14:38:23.602Z,22.43
2022-10-17T14:44:03.957Z,22.03
2022-10-17T14:46:30.794Z,22.06
2022-10-17T14:49:04.968Z,21.98
2022-10-17T14:51:40.069Z,21.83
2022-10-17T14:54:23.754Z,21.89
2022-10-17T14:56:52.184Z,21.95
2022-10-17T14:59:51.480Z,21.87
2022-10-17T15:02:09.474Z,21.98
2022-10-17T15:04:36.123Z,22.09
2022-10-17T15:07:03.592Z,22.12
2022-10-17T15:09:30.318Z,22.07
2022-10-17T15:12:04.059Z,21.94
2022-10-17T15:14:30.544Z,21.99
2022-10-17T15:16:57.019Z,22.09
2022-10-17T15:19:23.511Z,21.77
2022-10-17T15:21:49.987Z,21.68
2022-10-17T15:24:16.487Z,21.80
2022-10-17T15:26:43.069Z,21.80
2022-10-17T15:29:14.303Z,21.74
2022-10-17T15:31:40.779Z,21.64
2022-10-17T15:34:07.239Z,21.56
2022-10-17T15:36:37.271Z,21.56
2022-10-17T15:39:04.091Z,21.62
2022-10-17T15:41:32.157Z,21.58
2022-10-17T15:43:59.141Z,21.21
2022-10-17T15:46:28.899Z,21.20
2022-10-17T15:48:55.714Z,21.00
2022-10-17T15:51:22.600Z,21.13
2022-10-17T15:53:49.313Z,21.21
2022-10-17T15:56:26.973Z,21.27
2022-10-17T15:58:53.584Z,21.29
2022-10-17T16:01:22.514Z,21.35
2022-10-17T16:03:49.468Z,21.31
2022-10-17T16:06:17.073Z,21.33
2022-10-17T16:08:43.553Z,21.36
2022-10-17T16:11:31.911Z,21.25
2022-10-17T16:14:00.967Z,21.01
2022-10-17T16:16:27.728Z,20.79
2022-10-17T16:18:54.381Z,20.67
2022-10-17T16:21:24.497Z,20.59
2022-10-17T16:23:51.688Z,20.50
2022-10-17T16:26:18.439Z,20.38
2022-10-17T16:28:46.196Z,20.25
2022-10-17T16:31:21.945Z,20.14
2022-10-17T16:33:49.791Z,20.04
2022-10-17T16:36:16.876Z,19.92
2022-10-17T16:38:43.364Z,19.87
2022-10-17T16:41:22.042Z,19.65
2022-10-17T16:43:52.712Z,19.59
2022-10-17T16:46:19.457Z,19.45
2022-10-17T16:48:46.173Z,19.41
2022-10-17T16:51:14.364Z,19.30
2022-10-17T16:53:44.956Z,19.23
2022-10-17T16:56:13.127Z,19.06
2022-10-17T16:58:40.667Z,19.06
2022-10-17T17:01:09.930Z,19.09
2022-10-17T17:03:40.839Z,19.00
2022-10-17T17:06:08.538Z,18.83
2022-10-17T17:08:35.419Z,18.80
2022-10-17T17:11:01.927Z,18.61
2022-10-17T17:13:28.919Z,18.62
2022-10-17T17:16:15.357Z,18.70
2022-10-17T17:18:42.299Z,18.87
2022-10-17T17:21:10.466Z,18.74
2022-10-17T17:23:39.401Z,18.65
2022-10-17T17:26:18.007Z,18.65
2022-10-17T17:28:44.934Z,18.65
2022-10-17T17:31:14.898Z,18.61
2022-10-17T17:33:41.585Z,18.60
2022-10-17T17:36:08.921Z,18.64
2022-10-17T17:38:36.365Z,18.70
2022-10-17T17:41:03.563Z,18.62
2022-10-17T17:43:30.235Z,18.54
2022-10-17T17:45:57.081Z,18.58
2022-10-17T17:48:23.541Z,18.55
2022-10-17T17:50:50.046Z,18.53
2022-10-17T17:53:17.118Z,18.43
2022-10-17T17:55:46.599Z,18.36
2022-10-17T17:58:16.207Z,18.23
2022-10-17T18:00:45.635Z,18.28
2022-10-17T18:03:13.221Z,18.07
2022-10-17T18:05:40.179Z,18.13
2022-10-17T18:08:06.648Z,18.00
2022-10-17T18:10:33.204Z,17.84
2022-10-17T18:12:59.658Z,17.64
2022-10-17T18:15:26.534Z,17.77
2022-10-17T18:17:53.050Z,17.97
2022-10-17T18:20:19.536Z,18.10
2022-10-17T18:22:46.090Z,18.14
2022-10-17T18:25:12.583Z,18.03
2022-10-17T18:27:39.081Z,17.99
2022-10-17T18:30:06.247Z,17.82
2022-10-17T18:32:32.937Z,17.94
2022-10-17T18:35:16.000Z,17.94
2022-10-17T18:37:42.458Z,17.88
2022-10-17T18:40:09.567Z,17.93
2022-10-17T18:42:36.051Z,17.91
2022-10-17T18:45:02.611Z,18.00
2022-10-17T18:47:44.242Z,17.70
2022-10-17T18:50:10.755Z,17.63
2022-10-17T18:52:37.270Z,17.67
2022-10-17T18:55:04.034Z,17.76
2022-10-17T18:57:30.688Z,17.77
2022-10-17T18:59:57.264Z,17.72
2022-10-17T19:02:23.795Z,17.92
2022-10-17T19:04:50.353Z,17.94
2022-10-17T19:07:17.121Z,18.03
2022-10-17T19:09:43.668Z,18.04
2022-10-17T19:12:11.489Z,18.05
2022-10-17T19:14:38.279Z,17.96
2022-10-17T19:17:04.868Z,17.84
2022-10-17T19:19:31.785Z,17.77
2022-10-17T19:21:58.270Z,17.78
2022-10-17T19:24:26.708Z,17.77
2022-10-17T19:26:54.815Z,17.66
2022-10-17T19:29:26.489Z,17.75
2022-10-17T19:31:53.218Z,17.65
2022-10-17T19:34:19.751Z,17.61
2022-10-17T19:36:46.532Z,17.53
2022-10-17T19:39:20.771Z,17.53
2022-10-17T19:41:48.044Z,17.48
2022-10-17T19:44:15.541Z,17.35
2022-10-17T19:46:42.886Z,17.20
2022-10-17T19:49:10.239Z,17.17
2022-10-17T19:51:36.736Z,17.09
2022-10-17T19:54:03.528Z,17.23
2022-10-17T19:56:31.869Z,17.33
2022-10-17T19:58:59.207Z,17.45
2022-10-17T20:01:30.445Z,17.37
2022-10-17T20:03:57.385Z,17.33
2022-10-17T20:06:24.100Z,17.43
2022-10-17T20:08:51.280Z,17.44
2022-10-17T20:11:20.678Z,17.47
2022-10-17T20:13:47.696Z,17.57
2022-10-17T20:16:20.213Z,17.56
2022-10-17T20:18:47.041Z,17.60
2022-10-17T20:21:15.890Z,17.70
2022-10-17T20:23:42.802Z,17.86
2022-10-17T20:29:02.948Z,17.74
2022-10-17T20:31:29.708Z,17.64
2022-10-17T20:34:03.674Z,17.74
2022-10-17T20:36:32.935Z,17.87
2022-10-17T20:38:59.599Z,17.91
2022-10-17T20:41:26.378Z,17.96
2022-10-17T20:43:54.156Z,17.95
2022-10-17T20:46:35.891Z,18.02
2022-10-17T20:49:03.934Z,18.00
2022-10-17T20:51:33.949Z,18.07
2022-10-17T20:54:00.858Z,18.22
2022-10-17T20:56:29.268Z,18.23
2022-10-17T20:58:58.124Z,18.08
2022-10-17T21:01:27.155Z,17.81
2022-10-17T21:03:54.641Z,17.98
2022-10-17T21:06:22.382Z,18.08
2022-10-17T21:08:49.695Z,18.08
2022-10-17T21:11:21.685Z,17.96
2022-10-17T21:13:54.820Z,17.87
2022-10-17T21:16:21.616Z,17.92
2022-10-17T21:18:48.088Z,17.96
2022-10-17T21:21:23.055Z,18.09
2022-10-17T21:23:50.958Z,18.06
2022-10-17T21:26:18.258Z,17.94
2022-10-17T21:28:46.134Z,18.01
2022-10-17T21:34:20.385Z,18.07
2022-10-17T21:37:04.511Z,18.23
2022-10-17T21:39:31.267Z,18.04
2022-10-17T21:42:07.719Z,18.19
2022-10-17T21:44:34.412Z,18.13
2022-10-17T21:47:00.904Z,18.17
2022-10-17T21:49:27.427Z,18.09
2022-10-17T21:51:56.967Z,18.15
2022-10-17T21:54:23.829Z,18.10
2022-10-17T21:56:51.145Z,17.97
2022-10-17T21:59:17.808Z,18.02
2022-10-17T22:01:45.483Z,17.98
2022-10-17T22:04:14.897Z,17.85
2022-10-17T22:06:43.082Z,18.00
2022-10-17T22:09:14.335Z,18.04
2022-10-17T22:11:41.431Z,18.15
2022-10-17T22:14:11.910Z,18.19
2022-10-17T22:16:38.995Z,18.15
2022-10-17T22:19:07.002Z,18.27
2022-10-17T22:21:35.221Z,18.36
2022-10-17T22:24:07.933Z,18.26
2022-10-17T22:26:37.093Z,18.28
2022-10-17T22:29:07.273Z,17.99
2022-10-17T22:31:34.024Z,17.96
2022-10-17T22:34:00.778Z,18.03
2022-10-17T22:36:27.346Z,18.14
2022-10-17T22:38:53.897Z,18.01
2022-10-17T22:41:20.670Z,18.00
2022-10-17T22:43:47.207Z,18.12
2022-10-17T22:46:14.556Z,18.13
2022-10-17T22:48:41.073Z,18.29
2022-10-17T22:51:10.138Z,18.30
2022-10-17T22:53:36.724Z,18.05
2022-10-17T22:56:06.949Z,18.16
2022-10-17T22:58:34.314Z,18.01
2022-10-17T23:01:01.607Z,17.99
2022-10-17T23:03:29.281Z,17.94
2022-10-17T23:05:55.743Z,17.85
2022-10-17T23:08:22.534Z,18.12
2022-10-17T23:10:49.229Z,18.15
2022-10-17T23:13:18.987Z,18.28
2022-10-17T23:15:45.513Z,18.37
2022-10-17T23:18:12.128Z,18.40
2022-10-17T23:20:38.702Z,18.29
2022-10-17T23:23:05.468Z,18.16
2022-10-17T23:25:34.100Z,18.31
2022-10-17T23:28:00.968Z,18.38
2022-10-17T23:30:27.567Z,18.26
2022-10-17T23:32:54.090Z,18.29
2022-10-17T23:35:20.604Z,18.31
2022-10-17T23:37:47.072Z,18.24
2022-10-17T23:40:13.592Z,18.04
2022-10-17T23:42:40.238Z,18.01
2022-10-17T23:45:07.480Z,17.86
2022-10-17T23:47:34.281Z,17.89
2022-10-17T23:50:00.880Z,17.91
2022-10-17T23:52:27.371Z,17.89
2022-10-17T23:54:53.892Z,17.85
2022-10-17T23:57:20.492Z,17.68
2022-10-17T23:59:47.101Z,17.55
